Blackhawk, Colorado
Current Conditions -  °F | °C
As of 1:05 PM on Thursday 30 Oct 2014 (Local Time) from K0CO Reporting Station
Clear Clear  
Wind Chill: 18°   Ceiling: Unl
Heat Index: 32°   Visibility: 10mi
Dew Point: 28°   Wind: 26mph
Humidity: 87%   Direction: 310°NW
Pressure: 30.56"   Gusts: 36mph
Location:  39.8142°N, 105.541°W
Report Text: K0CO 301905Z AUTO 31023G31KT 10SM CLR 00/M02 A3056 RMK AO2
Loading
Personal Weather Stations






























Interactive Weather Map
Tropical Storm Tracking
New forecast layout! Learn more

10-Day Weather Forecast

Advertisements
Track Severe Weather on mobile